Time;durP1;ratioP1;P1;durP2;ratioP2;P2;SDS_P1;SDS_P2;PMS_P1;PMS_P2;Temp;Humidity;BMP_temperature;BMP_pressure;BME280_temperature;BME280_humidity;BME280_pressure;Samples;Min_cycle;Max_cycle;Signal;HPM_P1;HPM_P2
2022/02/01 00:00:56;;;;;;;5.05;2.30;;;;;;;1.03;96.97;95330.06;5031643;28;20216;-50
2022/02/01 00:03:24;;;;;;;5.07;2.80;;;;;;;1.05;96.25;95333.25;5025358;28;20545;-52
2022/02/01 00:06:05;;;;;;;3.67;2.20;;;;;;;1.12;96.09;95334.47;5031462;28;20119;-50
2022/02/01 00:08:44;;;;;;;3.65;2.20;;;;;;;0.91;97.15;95341.13;5022434;28;20037;-50
2022/02/01 00:37:40;;;;;;;3.10;2.10;;;;;;;0.76;98.70;95320.03;5030793;28;20041;-49
2022/02/01 00:40:12;;;;;;;3.85;2.20;;;;;;;0.76;98.53;95328.78;5016262;28;20049;-47
2022/02/01 00:42:39;;;;;;;3.83;2.33;;;;;;;0.80;98.37;95326.34;5030517;28;20461;-46
2022/02/01 00:45:06;;;;;;;3.72;2.33;;;;;;;0.77;98.71;95334.91;5013102;28;20045;-49
2022/02/01 00:47:33;;;;;;;4.43;2.78;;;;;;;0.65;98.90;95328.13;5027323;28;20126;-49
2022/02/01 00:50:00;;;;;;;4.25;2.20;;;;;;;0.62;98.92;95318.03;4994994;28;20064;-47
2022/02/01 00:52:29;;;;;;;3.80;2.28;;;;;;;0.44;100.00;95314.22;5010135;28;20042;-48
2022/02/01 00:54:56;;;;;;;3.38;2.08;;;;;;;0.50;100.00;95330.16;5002271;28;20073;-48
2022/02/01 00:57:23;;;;;;;2.38;1.70;;;;;;;0.52;100.00;95328.00;5031037;28;20045;-46
2022/02/01 00:59:50;;;;;;;2.90;1.90;;;;;;;0.39;100.00;95346.25;5030561;28;20076;-49
2022/02/01 01:02:17;;;;;;;3.00;1.75;;;;;;;0.50;100.00;95346.91;5014774;28;20143;-48
2022/02/01 01:04:44;;;;;;;2.35;1.60;;;;;;;0.17;100.00;95349.38;5031123;28;20049;-48
2022/02/01 01:07:11;;;;;;;3.63;1.70;;;;;;;0.32;100.00;95345.75;5030917;28;20037;-49
2022/02/01 01:09:38;;;;;;;2.17;1.40;;;;;;;0.11;100.00;95355.81;5022839;28;20057;-51
2022/02/01 01:12:06;;;;;;;2.83;1.80;;;;;;;0.30;100.00;95349.78;5028646;28;20077;-51
2022/02/01 01:14:58;;;;;;;2.75;1.63;;;;;;;0.31;100.00;95356.69;5023360;28;20531;-47
2022/02/01 01:44:46;;;;;;;4.25;2.88;;;;;;;0.22;100.00;95409.72;5002085;28;20046;-51
2022/02/01 01:53:12;;;;;;;5.32;3.60;;;;;;;0.11;100.00;95405.56;5026821;28;20048;-48
2022/02/01 01:55:42;;;;;;;6.28;3.35;;;;;;;0.15;100.00;95417.22;5010851;28;20037;-48
2022/02/01 01:58:09;;;;;;;5.03;3.50;;;;;;;0.12;100.00;95420.44;5033633;28;20048;-48
2022/02/01 02:03:18;;;;;;;5.90;3.65;;;;;;;0.18;100.00;95433.41;5025435;28;20103;-51
2022/02/01 02:05:45;;;;;;;6.10;3.30;;;;;;;0.18;100.00;95430.75;5033865;28;20116;-47
2022/02/01 02:08:13;;;;;;;6.32;3.80;;;;;;;0.17;100.00;95431.84;5015927;28;20558;-49
2022/02/01 02:10:53;;;;;;;5.45;3.40;;;;;;;0.08;100.00;95411.44;5015328;28;20100;-51
2022/02/01 02:16:10;;;;;;;5.32;3.13;;;;;;;0.17;100.00;95442.47;5033433;28;20056;-46
2022/02/01 02:18:36;;;;;;;5.28;3.95;;;;;;;0.13;100.00;95428.16;5021701;28;20457;-47
2022/02/01 02:21:05;;;;;;;5.20;3.72;;;;;;;0.16;100.00;95424.94;5015483;28;20375;-50
2022/02/01 02:23:32;;;;;;;6.32;3.53;;;;;;;0.16;100.00;95432.09;5023322;28;20141;-49
2022/02/01 02:26:04;;;;;;;6.25;4.43;;;;;;;0.15;100.00;95428.66;5033169;28;20115;-45
2022/02/01 02:28:31;;;;;;;5.82;4.00;;;;;;;0.15;100.00;95441.94;5033165;28;20116;-47
2022/02/01 02:31:00;;;;;;;6.65;3.90;;;;;;;0.17;100.00;95461.09;5011919;28;20133;-49
2022/02/01 02:33:28;;;;;;;7.57;4.82;;;;;;;0.17;100.00;95452.34;5026396;28;20049;-51
2022/02/01 02:36:18;;;;;;;8.05;4.28;;;;;;;0.16;100.00;95453.38;5014831;28;20064;-46
2022/02/01 02:41:32;;;;;;;9.32;5.32;;;;;;;0.27;100.00;95459.44;5032667;28;20065;-48
2022/02/01 02:46:53;;;;;;;8.73;4.90;;;;;;;0.22;100.00;95481.53;5031775;28;20041;-45
2022/02/01 02:49:23;;;;;;;8.55;5.85;;;;;;;0.40;100.00;95491.53;5032571;28;20046;-48
2022/02/01 02:51:51;;;;;;;7.57;4.88;;;;;;;0.30;100.00;95496.13;5032663;28;20052;-49
2022/02/01 02:54:23;;;;;;;6.78;4.22;;;;;;;0.29;100.00;95500.63;5017731;28;20410;-48
2022/02/01 02:56:53;;;;;;;8.18;5.32;;;;;;;0.25;100.00;95504.94;5032753;28;20133;-48
2022/02/01 02:59:25;;;;;;;7.88;5.45;;;;;;;0.41;100.00;95502.97;5032493;28;20045;-47
2022/02/01 03:01:52;;;;;;;8.52;5.53;;;;;;;0.34;100.00;95523.78;5020342;28;20081;-49
2022/02/01 03:04:22;;;;;;;10.27;6.05;;;;;;;0.50;100.00;95521.81;4995453;28;20034;-49
2022/02/01 03:06:50;;;;;;;8.25;5.63;;;;;;;0.42;100.00;95541.81;5014911;28;20498;-49
2022/02/01 03:09:20;;;;;;;8.63;5.68;;;;;;;0.19;100.00;95544.06;5031206;28;20073;-49
2022/02/01 03:11:49;;;;;;;7.65;5.32;;;;;;;0.46;100.00;95537.53;5027794;28;20060;-48
2022/02/01 03:14:23;;;;;;;8.00;4.90;;;;;;;0.26;100.00;95553.63;5014551;28;20045;-49
2022/02/01 03:17:10;;;;;;;8.18;5.00;;;;;;;0.26;100.00;95557.09;5020383;28;20041;-48
2022/02/01 03:19:50;;;;;;;6.32;3.50;;;;;;;0.27;100.00;95549.91;5025338;28;20048;-51
2022/02/01 03:22:27;;;;;;;8.43;5.45;;;;;;;0.32;100.00;95555.19;5012826;28;20055;-46
2022/02/01 03:24:58;;;;;;;6.13;4.07;;;;;;;0.34;99.22;95571.69;5021117;28;20042;-48
2022/02/01 03:27:25;;;;;;;8.55;5.10;;;;;;;0.30;99.87;95568.78;5014726;28;20409;-46
2022/02/01 03:29:52;;;;;;;7.70;4.57;;;;;;;0.28;99.97;95591.41;5021644;28;20056;-48
2022/02/01 03:32:20;;;;;;;8.18;5.28;;;;;;;0.39;100.00;95577.78;5008952;28;20060;-49
2022/02/01 03:34:52;;;;;;;8.93;5.10;;;;;;;0.25;100.00;95573.31;5024356;28;20060;-48
2022/02/01 03:37:20;;;;;;;7.00;4.35;;;;;;;0.16;100.00;95581.91;5010492;28;20491;-49
2022/02/01 03:39:47;;;;;;;8.57;5.20;;;;;;;0.14;100.00;95586.69;5030603;28;20137;-49
2022/02/01 03:42:14;;;;;;;8.68;5.10;;;;;;;0.15;100.00;95582.94;5019020;28;20133;-50
2022/02/01 03:44:42;;;;;;;8.85;5.38;;;;;;;0.15;100.00;95595.47;5014087;28;20465;-48
2022/02/01 03:47:09;;;;;;;10.25;6.28;;;;;;;0.18;100.00;95595.69;5028711;28;20055;-49
2022/02/01 03:49:39;;;;;;;8.50;4.85;;;;;;;0.18;100.00;95614.31;5008136;28;20046;-50
2022/02/01 03:52:08;;;;;;;9.70;5.78;;;;;;;0.14;100.00;95621.28;4998481;28;20045;-48
2022/02/01 03:54:35;;;;;;;9.32;4.75;;;;;;;0.18;99.88;95627.63;5021718;28;20048;-49
2022/02/01 03:57:05;;;;;;;9.27;5.50;;;;;;;0.20;100.00;95640.69;5031574;28;20140;-48
2022/02/01 03:59:33;;;;;;;10.82;5.90;;;;;;;0.18;100.00;95651.56;5031587;28;20045;-49
2022/02/01 04:02:01;;;;;;;9.68;6.55;;;;;;;0.34;100.00;95670.13;5010813;28;20042;-52
2022/02/01 04:04:32;;;;;;;9.95;6.05;;;;;;;0.13;100.00;95677.38;5031749;28;20064;-49
2022/02/01 04:07:00;;;;;;;9.60;5.53;;;;;;;0.09;100.00;95684.31;5031400;28;20455;-49
2022/02/01 04:09:27;;;;;;;11.75;6.20;;;;;;;-0.28;100.00;95667.69;5013646;28;20585;-50
2022/02/01 04:11:57;;;;;;;10.82;6.05;;;;;;;-0.33;100.00;95683.63;5012389;28;20079;-47
2022/02/01 04:14:28;;;;;;;11.20;5.15;;;;;;;-0.26;100.00;95683.34;5031738;28;20038;-46
2022/02/01 04:16:56;;;;;;;10.10;6.00;;;;;;;-0.38;100.00;95678.34;5031372;28;20531;-46
2022/02/01 04:19:24;;;;;;;12.43;5.97;;;;;;;-0.39;100.00;95674.09;5006123;28;20120;-50
2022/02/01 04:22:01;;;;;;;12.45;7.07;;;;;;;-0.14;100.00;95675.09;5027271;28;20069;-49
2022/02/01 04:24:30;;;;;;;12.65;7.85;;;;;;;-0.12;100.00;95672.97;5029125;28;20466;-49
2022/02/01 04:26:58;;;;;;;13.20;7.00;;;;;;;-0.16;100.00;95691.34;5031196;28;20061;-50
2022/02/01 04:29:25;;;;;;;11.77;6.68;;;;;;;-0.13;99.17;95696.13;5031233;28;20100;-47
2022/02/01 04:31:53;;;;;;;12.85;6.95;;;;;;;-0.09;97.96;95691.06;5013354;28;20046;-50
2022/02/01 04:34:20;;;;;;;9.93;5.28;;;;;;;-0.10;97.08;95697.41;5015087;28;20041;-48
2022/02/01 04:36:48;;;;;;;11.05;6.00;;;;;;;-0.07;97.71;95684.38;5031432;28;20494;-49
2022/02/01 04:39:15;;;;;;;9.02;5.40;;;;;;;-0.12;96.54;95692.38;5031226;28;20116;-49
2022/02/01 04:41:42;;;;;;;9.68;5.05;;;;;;;-0.14;96.50;95693.72;5026962;28;20045;-50
2022/02/01 04:44:09;;;;;;;9.77;5.55;;;;;;;-0.22;97.19;95691.63;5031083;28;20038;-48
2022/02/01 04:46:37;;;;;;;11.50;6.15;;;;;;;-0.24;95.80;95674.06;5031004;28;20185;-50
2022/02/01 04:49:08;;;;;;;9.55;6.03;;;;;;;-0.18;96.65;95698.78;5029767;28;20048;-46
2022/02/01 04:51:36;;;;;;;8.00;4.53;;;;;;;-0.21;94.53;95699.31;5030851;28;20049;-50
2022/02/01 04:54:04;;;;;;;9.20;4.75;;;;;;;-0.17;94.67;95708.34;5018153;28;20111;-49
2022/02/01 04:56:31;;;;;;;10.20;6.05;;;;;;;-0.06;93.57;95712.56;5012407;28;20045;-46
2022/02/01 04:58:58;;;;;;;9.30;5.13;;;;;;;-0.08;93.58;95714.69;5022938;28;20042;-49
2022/02/01 05:01:36;;;;;;;11.48;5.68;;;;;;;-0.15;93.49;95729.34;5028563;28;20487;-47
2022/02/01 05:04:07;;;;;;;8.63;5.00;;;;;;;-0.19;93.39;95739.72;5034945;28;20125;-49
2022/02/01 05:06:35;;;;;;;10.23;6.13;;;;;;;-0.04;93.27;95752.97;5034723;28;20037;-47
2022/02/01 05:09:04;;;;;;;9.43;5.32;;;;;;;-0.20;93.48;95745.31;5030686;28;20046;-49
2022/02/01 05:11:31;;;;;;;10.70;5.75;;;;;;;-0.02;93.70;95761.50;5027937;28;20410;-51
2022/02/01 05:19:12;;;;;;;9.93;5.82;;;;;;;0.02;93.74;95780.38;5032641;28;20451;-52
2022/02/01 05:21:40;;;;;;;16.85;7.13;;;;;;;0.41;92.17;95787.72;5034197;28;20160;-47
2022/02/01 05:24:10;;;;;;;10.30;6.30;;;;;;;0.18;92.33;95792.59;5019642;28;20050;-49
2022/02/01 05:26:37;;;;;;;11.00;6.07;;;;;;;0.20;91.52;95800.31;5034410;28;20153;-52
2022/02/01 05:29:04;;;;;;;9.95;5.63;;;;;;;0.15;92.40;95795.78;5016671;28;20516;-50
2022/02/01 05:31:31;;;;;;;12.48;6.05;;;;;;;0.19;92.95;95796.03;5033103;28;20046;-50
2022/02/01 05:33:58;;;;;;;11.23;5.40;;;;;;;0.06;92.75;95789.41;5027581;28;20037;-51
2022/02/01 05:36:27;;;;;;;8.75;3.97;;;;;;;-0.05;91.54;95793.16;5034169;28;20045;-48
2022/02/01 05:38:54;;;;;;;10.95;5.43;;;;;;;0.03;91.58;95797.91;5033964;28;20049;-51
2022/02/01 05:41:24;;;;;;;12.25;6.65;;;;;;;0.00;91.02;95801.16;5025896;28;20065;-49
2022/02/01 05:43:51;;;;;;;10.55;5.90;;;;;;;0.00;92.63;95806.47;5013069;28;20128;-49
2022/02/01 05:46:18;;;;;;;12.55;6.47;;;;;;;-0.05;92.31;95812.56;5039838;23;20052;-56
2022/02/01 05:48:45;;;;;;;10.20;6.40;;;;;;;0.06;92.57;95813.34;5070072;28;20123;-56
2022/02/01 05:51:13;;;;;;;11.73;6.70;;;;;;;0.08;92.99;95819.22;5074060;28;20124;-56
2022/02/01 05:53:39;;;;;;;13.10;6.43;;;;;;;0.29;92.40;95819.16;5062374;28;20045;-55
2022/02/01 05:56:06;;;;;;;11.43;6.50;;;;;;;0.32;92.71;95834.59;5061825;28;20041;-55
2022/02/01 05:58:33;;;;;;;12.60;7.03;;;;;;;0.34;93.36;95843.91;5054229;28;20409;-55
2022/02/01 06:01:00;;;;;;;12.73;7.55;;;;;;;0.52;92.00;95837.22;5042285;28;20117;-55
2022/02/01 06:03:28;;;;;;;13.05;8.00;;;;;;;0.47;93.42;95851.34;5051864;28;20041;-55
2022/02/01 06:05:55;;;;;;;12.85;7.70;;;;;;;0.50;92.95;95859.84;5052375;28;20075;-57
2022/02/01 06:08:28;;;;;;;13.35;7.82;;;;;;;0.61;92.63;95856.88;5052567;28;20045;-54
2022/02/01 06:10:55;;;;;;;14.02;7.55;;;;;;;0.76;92.53;95858.72;5034413;28;20069;-53
2022/02/01 06:13:22;;;;;;;11.98;7.15;;;;;;;0.68;92.60;95854.75;5059501;28;20045;-54
2022/02/01 06:15:49;;;;;;;12.40;7.20;;;;;;;0.35;94.35;95852.69;5053695;28;20387;-55
2022/02/01 06:18:16;;;;;;;13.20;7.88;;;;;;;0.65;93.51;95862.47;5053786;28;20036;-56
2022/02/01 06:20:44;;;;;;;11.10;6.82;;;;;;;0.42;94.06;95855.84;5035104;28;20421;-51
2022/02/01 06:23:15;;;;;;;12.07;6.95;;;;;;;0.57;94.10;95853.16;5044467;28;20055;-54
2022/02/01 06:25:48;;;;;;;11.90;7.05;;;;;;;0.70;93.00;95849.16;5057826;28;20045;-56
2022/02/01 06:28:16;;;;;;;13.00;6.85;;;;;;;0.64;92.83;95845.69;5019534;28;20382;-57
2022/02/01 06:30:43;;;;;;;10.02;5.30;;;;;;;0.56;93.40;95850.78;5047195;28;20049;-56
2022/02/01 06:33:11;;;;;;;9.43;6.22;;;;;;;0.66;93.18;95851.56;5023270;28;20053;-57
2022/02/01 06:35:38;;;;;;;10.65;6.47;;;;;;;0.67;92.91;95847.81;5048159;28;20048;-56
2022/02/01 06:38:08;;;;;;;14.38;8.90;;;;;;;0.65;93.58;95846.47;5033975;28;20125;-57
2022/02/01 06:40:35;;;;;;;12.73;7.03;;;;;;;0.26;98.46;95852.44;5052864;28;20509;-57
2022/02/01 06:43:03;;;;;;;14.15;7.53;;;;;;;0.42;97.45;95847.88;5053123;28;20131;-57
2022/02/01 06:45:30;;;;;;;13.82;8.25;;;;;;;0.43;97.03;95852.16;5052946;28;20041;-55
2022/02/01 06:47:57;;;;;;;14.32;7.70;;;;;;;0.33;97.95;95852.97;5043364;28;20045;-53
2022/02/01 06:50:24;;;;;;;12.40;7.65;;;;;;;0.35;99.18;95858.00;5035226;28;20510;-57
2022/02/01 06:52:56;;;;;;;15.27;8.75;;;;;;;0.45;98.06;95858.00;5034149;28;20044;-57
2022/02/01 06:56:28;;;;;;;15.25;8.20;;;;;;;0.16;99.84;95863.09;5035627;28;20418;-53
2022/02/01 06:58:21;;;;;;;12.40;7.43;;;;;;;0.28;99.76;95866.28;5011200;28;20132;-51
2022/02/01 07:00:48;;;;;;;9.75;5.78;;;;;;;0.04;100.00;95871.34;5041035;28;20045;-50
2022/02/01 07:03:15;;;;;;;12.18;6.82;;;;;;;0.01;100.00;95879.88;5051931;28;20080;-53
2022/02/01 07:05:44;;;;;;;9.38;6.05;;;;;;;0.26;100.00;95886.22;5053187;28;20064;-52
2022/02/01 07:08:10;;;;;;;13.48;6.50;;;;;;;0.34;99.80;95880.38;5053128;28;20068;-53
2022/02/01 07:10:38;;;;;;;9.38;5.90;;;;;;;0.30;99.76;95874.00;5049397;28;20044;-54
2022/02/01 07:13:05;;;;;;;9.95;4.63;;;;;;;-0.17;100.00;95888.34;5052162;28;20094;-53
2022/02/01 07:15:32;;;;;;;9.05;5.38;;;;;;;0.09;100.00;95883.84;5052537;28;20041;-55
2022/02/01 07:17:59;;;;;;;10.60;5.05;;;;;;;0.06;100.00;95881.72;5052329;28;20076;-56
2022/02/01 07:20:26;;;;;;;10.90;5.50;;;;;;;0.14;100.00;95876.66;5038727;28;20153;-55
2022/02/01 07:22:53;;;;;;;11.13;5.43;;;;;;;0.25;100.00;95888.09;5045629;28;20045;-56
2022/02/01 07:25:33;;;;;;;11.95;5.20;;;;;;;0.18;100.00;95884.91;5044976;28;20044;-55
2022/02/01 07:28:02;;;;;;;14.10;6.10;;;;;;;0.22;100.00;95897.41;5052533;28;20726;-53
2022/02/01 07:30:29;;;;;;;15.32;5.30;;;;;;;0.18;100.00;95901.66;5050434;28;20044;-57
2022/02/01 07:33:00;;;;;;;16.90;5.13;;;;;;;0.06;100.00;95911.75;5050439;28;20490;-53
2022/02/01 07:35:30;;;;;;;12.98;4.45;;;;;;;0.08;99.75;95914.19;5034163;28;20049;-55
2022/02/01 07:37:59;;;;;;;13.30;5.50;;;;;;;0.21;98.38;95914.44;5051398;28;20464;-53
2022/02/01 07:40:26;;;;;;;16.52;5.03;;;;;;;0.20;97.42;95920.84;5044116;28;20048;-53
2022/02/01 07:42:54;;;;;;;18.35;5.72;;;;;;;0.19;95.97;95929.84;5051972;28;20481;-52
2022/02/01 07:45:25;;;;;;;18.60;4.22;;;;;;;0.12;96.20;95937.31;5052007;28;20486;-54
2022/02/01 07:47:54;;;;;;;17.75;5.30;;;;;;;0.22;95.17;95945.28;5049532;28;20045;-53
2022/02/01 07:50:21;;;;;;;18.30;4.88;;;;;;;0.04;94.11;95943.16;5045218;28;21245;-53
2022/02/01 07:52:48;;;;;;;11.93;4.13;;;;;;;0.01;94.72;95938.38;5047991;28;20075;-48
2022/02/01 07:55:15;;;;;;;14.15;4.32;;;;;;;-0.03;95.97;95937.31;5051733;28;20099;-54
2022/02/01 07:57:42;;;;;;;17.70;5.65;;;;;;;0.01;94.85;95943.69;5051198;28;20080;-55
2022/02/01 08:00:10;;;;;;;16.15;5.18;;;;;;;-0.03;93.60;95945.31;5048242;28;20047;-49
2022/02/01 08:02:37;;;;;;;16.40;3.97;;;;;;;0.02;93.16;95958.59;5045983;28;20049;-53
2022/02/01 08:05:21;;;;;;;11.85;3.78;;;;;;;-0.17;91.81;95957.50;5051933;28;20067;-52
2022/02/01 08:07:48;;;;;;;11.68;3.03;;;;;;;-0.42;95.02;95947.59;5051560;28;20135;-52
2022/02/01 08:10:17;;;;;;;19.35;4.53;;;;;;;-0.24;94.33;95952.44;5032786;28;20143;-51
2022/02/01 08:20:58;;;;;;;17.20;4.80;;;;;;;-0.06;94.23;95951.94;5046417;28;20033;-51
2022/02/01 08:23:24;;;;;;;13.77;3.88;;;;;;;-0.06;93.31;95964.44;5040464;28;20785;-50
2022/02/01 08:25:53;;;;;;;18.65;5.00;;;;;;;-0.06;92.43;95978.53;5050479;28;20353;-49
2022/02/01 08:28:22;;;;;;;11.35;3.53;;;;;;;-0.07;92.43;95986.75;5047593;28;20068;-49
2022/02/01 08:30:50;;;;;;;16.02;3.55;;;;;;;-0.27;92.26;95968.91;5048822;28;20448;-50
2022/02/01 08:33:18;;;;;;;17.45;4.05;;;;;;;0.00;91.35;95968.72;5048509;28;20041;-52
2022/02/01 08:35:45;;;;;;;14.85;4.22;;;;;;;0.14;90.02;95980.44;5050744;28;20036;-50
2022/02/01 08:38:18;;;;;;;17.33;3.88;;;;;;;-0.05;88.86;95989.97;5046643;28;20441;-52
2022/02/01 08:40:47;;;;;;;15.15;3.35;;;;;;;0.15;89.14;95999.84;5050098;28;20525;-54
2022/02/01 08:43:16;;;;;;;18.98;4.18;;;;;;;0.18;89.66;96001.97;5049665;28;20040;-51
2022/02/01 08:45:44;;;;;;;16.02;5.45;;;;;;;0.20;89.18;96008.63;5044703;28;20167;-51
2022/02/01 08:48:11;;;;;;;17.48;3.63;;;;;;;0.00;88.98;96016.59;5033472;28;20041;-53
2022/02/01 08:50:39;;;;;;;18.15;3.50;;;;;;;0.06;89.09;96004.06;5050351;28;20546;-52
2022/02/01 08:53:25;;;;;;;12.23;2.70;;;;;;;-0.11;89.15;96002.44;5045728;28;20049;-50
2022/02/01 08:58:21;;;;;;;12.48;3.13;;;;;;;0.04;88.40;96017.66;5037662;28;20104;-53
2022/02/01 09:00:48;;;;;;;13.90;3.60;;;;;;;0.12;87.72;96025.09;5050522;28;20119;-51
2022/02/01 09:03:15;;;;;;;12.38;2.60;;;;;;;-0.11;87.61;96020.28;5050814;28;20037;-53
2022/02/01 09:05:45;;;;;;;18.63;4.72;;;;;;;0.13;87.60;96018.75;5050369;28;20131;-51
2022/02/01 09:08:12;;;;;;;15.77;3.13;;;;;;;-0.12;87.30;96024.00;5041235;28;20049;-53
2022/02/01 09:10:39;;;;;;;15.20;3.13;;;;;;;0.25;87.15;96025.66;5046044;28;20132;-53
2022/02/01 09:13:06;;;;;;;11.32;3.30;;;;;;;-0.06;87.01;96030.94;5043720;28;20049;-53
2022/02/01 09:15:34;;;;;;;17.08;3.50;;;;;;;0.10;86.80;96029.09;5044871;28;20071;-50
2022/02/01 09:18:01;;;;;;;14.90;4.05;;;;;;;0.01;86.21;96036.00;5038977;28;20136;-51
2022/02/01 09:20:29;;;;;;;13.55;2.95;;;;;;;-0.15;87.33;96041.28;5048494;28;20318;-51
2022/02/01 09:22:57;;;;;;;11.25;2.58;;;;;;;-0.14;87.04;96029.56;5046670;28;20116;-50
2022/02/01 09:25:25;;;;;;;15.38;2.88;;;;;;;0.14;87.23;96030.97;5049749;28;20033;-52
2022/02/01 09:27:53;;;;;;;13.85;3.00;;;;;;;0.14;87.33;96030.19;5054072;28;20049;-53
2022/02/01 09:30:22;;;;;;;14.27;3.45;;;;;;;0.19;86.47;96004.34;5046883;28;20041;-51
2022/02/01 09:32:50;;;;;;;16.60;3.92;;;;;;;0.37;85.85;96011.03;5050123;28;20044;-53
2022/02/01 09:35:18;;;;;;;16.30;2.75;;;;;;;0.40;85.48;96009.72;5008226;28;20091;-55
2022/02/01 09:37:45;;;;;;;13.68;3.38;;;;;;;0.25;85.83;96034.44;5040857;28;20128;-51
2022/02/01 09:40:32;;;;;;;14.85;2.90;;;;;;;0.38;86.08;96039.25;5047621;28;20510;-54
2022/02/01 09:42:59;;;;;;;14.18;2.97;;;;;;;0.42;85.56;96042.19;5050092;28;20135;-53
2022/02/01 09:45:29;;;;;;;12.70;2.47;;;;;;;0.40;85.64;96049.66;5049060;28;20132;-50
2022/02/01 09:48:06;;;;;;;12.65;2.80;;;;;;;0.45;85.46;96057.63;5034983;28;20048;-52
2022/02/01 09:50:34;;;;;;;12.40;2.78;;;;;;;0.72;85.61;96040.63;5052614;28;20512;-53
2022/02/01 09:53:02;;;;;;;14.90;2.95;;;;;;;0.62;85.57;96052.88;5041018;28;20041;-51
2022/02/01 09:55:29;;;;;;;16.65;2.50;;;;;;;0.38;84.99;96051.75;5053327;28;20036;-53
2022/02/01 09:57:56;;;;;;;14.45;3.42;;;;;;;0.60;85.10;96054.97;5053123;28;20045;-54
2022/02/01 10:00:33;;;;;;;9.40;2.72;;;;;;;0.47;85.48;96060.81;5023995;28;20041;-50
2022/02/01 10:03:05;;;;;;;10.80;2.30;;;;;;;0.62;85.52;96066.19;5040676;28;20044;-51
2022/02/01 10:05:35;;;;;;;12.13;2.55;;;;;;;0.64;85.17;96081.88;5053357;28;20094;-51
2022/02/01 10:08:03;;;;;;;15.98;2.60;;;;;;;0.40;85.54;96060.28;5053630;28;20496;-51
2022/02/01 10:10:32;;;;;;;10.60;2.47;;;;;;;0.75;85.39;96072.84;5037347;28;20466;-50
2022/02/01 10:13:02;;;;;;;12.57;2.40;;;;;;;0.82;85.03;96051.28;5034765;28;20041;-50
2022/02/01 10:15:34;;;;;;;13.43;2.65;;;;;;;0.66;85.26;96048.59;5044591;28;20425;-51
2022/02/01 10:18:03;;;;;;;9.80;1.95;;;;;;;0.58;85.52;96050.97;5038275;28;20037;-50
2022/02/01 10:20:38;;;;;;;8.30;2.30;;;;;;;0.58;85.16;96051.78;5048805;28;20045;-49
2022/02/01 10:23:19;;;;;;;11.32;2.33;;;;;;;0.66;85.52;96050.47;5016197;28;20040;-49
2022/02/01 10:26:10;;;;;;;9.30;2.20;;;;;;;0.78;83.96;96052.84;5052848;28;20049;-49
2022/02/01 10:31:29;;;;;;;9.38;1.75;;;;;;;0.68;84.41;96049.13;5050939;28;20124;-50
2022/02/01 10:34:03;;;;;;;11.27;2.67;;;;;;;0.72;83.68;96051.28;5051663;28;20041;-50
2022/02/01 10:36:37;;;;;;;;;;;;;;;0.69;83.16;96039.28;5049436;28;20041;-49
2022/02/01 10:39:17;;;;;;;9.95;1.98;;;;;;;0.67;83.59;96052.06;5044651;28;20590;-53
2022/02/01 10:41:56;;;;;;;8.65;2.00;;;;;;;0.51;83.73;96035.28;5036908;28;20049;-50
2022/02/01 10:44:24;;;;;;;8.48;2.00;;;;;;;0.71;83.74;96042.47;5048877;28;20068;-53
2022/02/01 10:46:53;;;;;;;8.95;2.20;;;;;;;0.72;82.87;96038.75;5030676;28;20041;-54
2022/02/01 10:49:38;;;;;;;7.70;1.95;;;;;;;0.88;82.73;96018.25;5036394;28;20136;-52
2022/02/01 10:52:06;;;;;;;11.45;2.83;;;;;;;0.89;82.32;96020.63;5043738;28;20483;-50
2022/02/01 10:54:43;;;;;;;10.45;2.60;;;;;;;0.82;nan;96020.09;5068328;28;20123;-53
2022/02/01 10:57:12;;;;;;;10.02;2.40;;;;;;;0.85;81.55;96026.75;5054500;28;20332;-52
2022/02/01 10:59:40;;;;;;;9.70;2.28;;;;;;;0.86;81.94;96015.81;5051877;28;20147;-52
2022/02/01 11:02:07;;;;;;;8.68;2.40;;;;;;;0.96;81.40;96015.00;5060082;28;20479;-53
2022/02/01 11:04:37;;;;;;;8.25;1.92;;;;;;;0.82;81.29;96019.31;5050009;28;20124;-50
2022/02/01 11:07:05;;;;;;;9.73;2.00;;;;;;;0.85;81.33;96013.44;5049872;28;20454;-53
2022/02/01 11:09:35;;;;;;;15.30;2.40;;;;;;;0.73;80.87;96012.91;5034313;28;20135;-55
2022/02/01 11:12:07;;;;;;;7.45;1.70;;;;;;;1.06;80.38;96020.31;5051383;28;20049;-51
2022/02/01 11:14:39;;;;;;;8.95;2.53;;;;;;;1.04;79.82;96019.81;5051870;28;20044;-52
2022/02/01 11:17:11;;;;;;;8.52;2.25;;;;;;;1.05;79.16;96029.41;5054679;28;20040;-50
2022/02/01 11:19:55;;;;;;;9.98;2.80;;;;;;;0.93;78.56;96031.53;5034515;28;20053;-49
2022/02/01 11:22:38;;;;;;;9.98;2.25;;;;;;;0.98;79.28;96009.44;5043991;28;20042;-51
2022/02/01 11:25:25;;;;;;;8.27;1.90;;;;;;;0.90;79.39;96030.19;5050804;28;20075;-53
2022/02/01 11:30:35;;;;;;;9.20;2.50;;;;;;;1.06;79.39;95999.00;5052436;28;20045;-51
2022/02/01 11:33:04;;;;;;;7.20;1.73;;;;;;;0.86;80.24;95996.38;5033162;28;20048;-49
2022/02/01 11:35:31;;;;;;;6.22;1.98;;;;;;;1.00;81.52;95993.97;5051946;28;20037;-51
2022/02/01 11:38:23;;;;;;;8.25;2.92;;;;;;;1.23;79.70;95972.03;5051622;28;20095;-50
2022/02/01 11:41:04;;;;;;;7.28;2.05;;;;;;;1.13;80.43;95967.53;5052246;28;20045;-50
2022/02/01 11:43:38;;;;;;;4.90;1.95;;;;;;;1.44;79.65;95980.78;5045881;28;20413;-49
2022/02/01 11:46:09;;;;;;;7.32;1.75;;;;;;;1.31;79.41;95976.03;5048831;28;20053;-51
2022/02/01 11:48:41;;;;;;;7.45;2.25;;;;;;;1.17;81.52;95962.50;5051858;28;20041;-49
2022/02/01 11:51:11;;;;;;;6.30;2.00;;;;;;;1.58;79.80;95965.00;5049500;28;20098;-51
2022/02/01 11:53:43;;;;;;;7.03;1.88;;;;;;;1.37;78.74;95962.41;5041258;28;20037;-50
2022/02/01 11:56:14;;;;;;;7.30;1.90;;;;;;;1.50;79.05;95966.38;5050533;28;20068;-52
2022/02/01 11:58:46;;;;;;;11.45;2.35;;;;;;;1.51;79.44;95930.63;5051730;28;20076;-50
2022/02/01 12:01:30;;;;;;;6.88;1.98;;;;;;;1.56;78.47;95927.94;5049018;28;20053;-52
2022/02/01 12:04:07;;;;;;;6.63;2.00;;;;;;;1.60;79.43;95928.19;5051627;28;20044;-49
2022/02/01 12:06:55;;;;;;;5.70;2.22;;;;;;;1.59;79.38;95927.41;5042392;28;20072;-50
2022/02/01 12:09:24;;;;;;;6.75;2.40;;;;;;;1.56;77.39;95917.28;5040927;28;20045;-53
2022/02/01 12:11:56;;;;;;;6.30;1.60;;;;;;;1.50;77.28;95906.91;5031559;28;20045;-54
2022/02/01 12:14:25;;;;;;;7.32;2.40;;;;;;;1.70;77.06;95890.78;5051539;28;20075;-50
2022/02/01 12:16:53;;;;;;;8.45;2.05;;;;;;;1.61;77.54;95879.91;5055985;28;20135;-54
2022/02/01 12:19:31;;;;;;;5.53;2.08;;;;;;;1.45;77.18;95881.06;5051061;28;20044;-54
2022/02/01 12:23:00;;;;;;;8.73;2.03;;;;;;;1.49;77.85;95890.09;5047497;28;20037;-54
2022/02/01 12:25:29;;;;;;;6.55;2.20;;;;;;;1.52;77.74;95884.22;5048614;28;20057;-52
2022/02/01 12:27:56;;;;;;;7.90;2.25;;;;;;;1.63;77.96;95872.44;5048796;28;20040;-52
2022/02/01 12:30:23;;;;;;;6.80;2.10;;;;;;;1.45;78.36;95845.59;5048746;28;20053;-52
2022/02/01 12:32:58;;;;;;;7.35;2.75;;;;;;;1.68;77.95;95850.25;5040739;28;20047;-54
2022/02/01 12:35:33;;;;;;;6.45;1.98;;;;;;;1.62;77.75;95844.16;5043914;28;20115;-52
2022/02/01 12:38:04;;;;;;;5.55;1.77;;;;;;;1.52;78.23;95846.09;5059525;28;20124;-53
2022/02/01 12:40:37;;;;;;;4.68;2.03;;;;;;;1.61;78.13;95847.91;5050895;28;20064;-52
2022/02/01 12:43:12;;;;;;;6.15;1.77;;;;;;;1.64;77.50;95850.00;5051022;28;20406;-53
2022/02/01 12:48:31;;;;;;;5.78;2.10;;;;;;;1.39;78.69;95845.63;5012945;28;20065;-49
2022/02/01 12:51:04;;;;;;;4.53;1.90;;;;;;;1.31;79.08;95840.88;5047723;28;20072;-52
2022/02/01 12:53:48;;;;;;;5.65;2.05;;;;;;;1.04;81.61;95848.47;5032896;28;20091;-49
2022/02/01 12:56:19;;;;;;;7.55;2.00;;;;;;;1.09;81.71;95849.25;5051351;28;20468;-50
2022/02/01 12:58:57;;;;;;;6.32;2.00;;;;;;;1.15;81.67;95840.16;5047105;28;20056;-52
2022/02/01 13:01:42;;;;;;;5.25;2.03;;;;;;;0.93;82.94;95850.41;5042870;28;20053;-49
2022/02/01 13:04:20;;;;;;;6.25;2.33;;;;;;;1.06;82.86;95836.47;5031298;28;20044;-51
2022/02/01 13:06:49;;;;;;;8.52;2.20;;;;;;;1.13;82.52;95834.31;5051196;28;20494;-50
2022/02/01 13:14:52;;;;;;;5.00;2.15;;;;;;;0.89;83.72;95823.50;5049521;28;20041;-52
2022/02/01 13:20:10;;;;;;;6.03;1.90;;;;;;;0.93;83.13;95808.56;5035535;28;20084;-51
2022/02/01 13:22:56;;;;;;;7.32;2.13;;;;;;;1.03;82.91;95812.25;5025915;28;20580;-51
2022/02/01 13:25:49;;;;;;;4.85;2.10;;;;;;;0.92;82.70;95811.50;5046492;28;20052;-51
2022/02/01 13:28:16;;;;;;;6.30;1.92;;;;;;;1.00;81.41;95805.59;5054416;28;20033;-51
2022/02/01 13:30:44;;;;;;;6.85;2.03;;;;;;;0.88;81.31;95805.94;5050227;28;20132;-50
2022/02/01 13:33:14;;;;;;;4.97;1.70;;;;;;;1.03;79.90;95836.22;5030170;28;20048;-54